Hartsel, CO (80449)

6:34 AM MST on December 25, 2014 (GMT -0700)
Antero Junction | Change Station
CLOSE
Current Station
Personal Weather Station
Location: Hartsel, CO
Elevation: 9420 ft
Nearby Weather Stations

Elev 9420 ft 38.89 °N, 105.90 °W | Updated 1 minute ago

Mostly Cloudy
Mostly Cloudy
21.7 °F
Feels Like 22 °F
N
0.0
Wind Variable Wind from South
Gusts 6.0 mph

Today
High -- | Low -- °F
--% Chance of Precip.
Yesterday
High -- | Low -- °F
Precip. -- in
7:19 AM 4:46 PM
Waxing Crescent, 16% visible
Pressure 29.55 in
Visibility 10.0 miles
Clouds Mostly Cloudy 5000 ft
Mostly Cloudy 6500 ft
Overcast 8000 ft
Windchill 22 °F
Dew Point 12 °F
Humidity 67%
Rainfall 0.00 in
Snow Depth Not available.
UV 0 out of 12
Pollen .10 out of 12
Air Quality Not available.
Flu Activity Not available.
METAR KAEJ 251315Z AUTO 29003KT 10SM BKN050 BKN065 OVC080 M09/M12 A2955 RMK AO2 T10911124

More Conditions Fewer Conditions

Pressure 29.55 in
Visibility 10.0 miles
Clouds Mostly Cloudy 5000 ft
Mostly Cloudy 6500 ft
Overcast 8000 ft
Windchill 22 °F
Dew Point 12 °F
Humidity 67%
Rainfall 0.00 in
Snow Depth Not available.
UV 0 out of 12
Pollen .10 out of 12
Air Quality Not available.
Flu Activity Not available.
METAR KAEJ 251315Z AUTO 29003KT 10SM BKN050 BKN065 OVC080 M09/M12 A2955 RMK AO2 T10911124

More Conditions Fewer Conditions

10-Day Weather Forecast

Almanac

Astronomy

Dec. 25, 2014 Rise Set
Actual Time
Civil Twilight
Nautical Twilight
Astronomical Twilight
Moon
Length of Visible Light
Length of Day
Tomorrow will be .
, % of the Moon is Illuminated

Today's Extremes

State Highs State Lows

Community

WunderPhotos

Upload Photos

1,780,271 photos uploaded!

WunderBlogs® & News

Nearby

Air Quality

  Air Quality AQ Index Pollutant
Not available.

Snow Depth

Station Depth Elevation

Earthquake Activity

City Distance Mag. Time & Date
Minimum magnitude displayed is 2.5.

Coastal Water Temperatures

Place Temperature

Nearby Weather Stations